CDT,Max TemperatureF,Mean TemperatureF,Min TemperatureF,Max Dew PointF,MeanDew PointF,Min DewpointF,Max Humidity, Mean Humidity, Min Humidity, Max Sea Level PressureIn, Mean Sea Level PressureIn, Min Sea Level PressureIn, Max VisibilityMiles, Mean VisibilityMiles, Min VisibilityMiles, Max Wind SpeedMPH, Mean Wind SpeedMPH, Max Gust SpeedMPH,PrecipitationIn, CloudCover, Events, WindDirDegrees
2012-10-1,69,58,46,46,43,39,93,61,33,29.93,29.86,29.81,10,10,4,14,6,23,0.00,0,Rain,57
2012-10-2,75,64,53,54,48,41,88,59,31,29.89,29.84,29.79,10,10,5,20,9,25,0.00,2,,39
2012-10-3,66,62,57,59,56,54,100,82,68,30.05,29.96,29.88,10,8,1,13,6,,0.08,7,Rain,263
2012-10-4,80,65,48,59,54,46,100,78,42,30.16,30.08,30.02,10,10,7,23,9,31,0.27,3,Rain-Thunderstorm,226
2012-10-5,48,44,39,46,40,34,93,79,66,30.21,30.16,30.11,10,10,10,15,8,18,0.04,5,Rain,285
2012-10-6,50,42,33,34,31,28,93,69,50,30.20,30.17,30.11,10,10,10,16,10,24,0.00,3,,290
2012-10-7,51,40,30,34,29,21,87,61,30,30.22,30.18,30.14,10,10,10,14,6,18,0.00,5,,292
2012-10-8,60,44,28,36,30,27,93,60,29,30.18,30.11,30.03,10,10,10,20,7,29,0.00,0,,189
2012-10-9,66,54,42,45,39,36,100,63,35,30.04,29.95,29.85,10,10,10,24,13,37,0.12,2,Rain,206
2012-10-10,55,44,33,45,34,28,100,71,36,30.20,30.12,29.97,10,10,10,24,10,32,0.02,1,Rain,277
2012-10-11,66,49,32,41,34,28,87,54,30,30.23,30.15,30.07,10,10,10,24,9,30,0.00,0,,211
2012-10-12,60,50,39,39,31,25,71,51,25,30.42,30.34,30.23,10,10,10,15,11,20,0.00,1,,65
2012-10-13,69,56,44,64,54,32,100,84,61,30.24,29.99,29.79,10,8,4,22,12,30,0.53,5,Rain-Thunderstorm,178
2012-10-14,71,61,51,64,59,46,94,87,68,29.84,29.66,29.48,10,9,2,44,21,52,0.44,6,Rain-Thunderstorm,225
2012-10-15,62,52,42,46,43,39,93,76,45,29.97,29.92,29.85,10,10,5,21,10,26,0.00,0,,296
2012-10-16,73,56,39,54,47,37,100,70,46,29.96,29.75,29.57,10,10,10,29,11,37,0.00,0,,159
2012-10-17,66,60,55,63,55,50,100,81,60,29.60,29.49,29.29,10,9,2,24,16,36,0.71,4,Rain-Thunderstorm,194
2012-10-18,55,50,46,52,42,36,94,75,47,29.54,29.47,29.41,10,10,7,22,14,34,0.02,3,Rain,226
2012-10-19,53,50,46,48,46,43,100,91,71,29.68,29.53,29.43,10,8,2,20,10,24,0.19,7,Rain,253
2012-10-20,57,49,41,46,44,39,100,85,59,29.95,29.83,29.69,10,7,2,12,7,16,0.00,4,,259
2012-10-21,71,55,39,55,48,37,100,80,53,30.01,29.97,29.93,10,9,4,15,7,18,0.00,0,,139
2012-10-22,66,60,53,64,60,54,100,89,73,30.00,29.93,29.89,10,10,5,20,9,26,0.19,5,Rain-Thunderstorm,172
2012-10-23,73,68,62,64,62,61,94,86,73,29.95,29.91,29.88,10,10,7,17,9,23,0.00,4,Rain-Thunderstorm,183
2012-10-24,80,71,62,66,63,57,88,78,61,29.96,29.91,29.86,10,10,7,22,12,28,0.00,1,,183
2012-10-25,78,62,46,64,57,39,100,80,57,30.09,29.85,29.72,10,10,2,28,19,38,0.49,4,Rain-Thunderstorm,214
2012-10-26,50,44,37,39,34,32,81,70,54,30.33,30.27,30.11,10,10,10,22,14,30,0.00,3,,336
2012-10-27,48,40,33,32,30,28,87,68,46,30.33,30.28,30.23,10,10,10,18,10,21,0.00,0,,357
2012-10-28,51,42,33,37,31,28,87,69,41,30.28,30.25,30.22,10,10,10,17,10,24,0.00,3,,13
2012-10-29,53,42,32,37,30,23,93,65,30,30.29,30.22,30.07,10,10,10,18,10,25,0.00,0,,345
2012-10-30,51,44,37,28,27,25,70,56,35,30.06,29.88,29.80,10,10,10,28,17,36,0.00,1,,328
2012-10-31,51,40,30,30,26,19,86,61,39,29.90,29.86,29.82,10,10,10,23,12,29,0.00,0,,310